Time;durP1;ratioP1;P1;durP2;ratioP2;P2;SDS_P1;SDS_P2;PMS_P1;PMS_P2;Temp;Humidity;BMP_temperature;BMP_pressure;BME280_temperature;BME280_humidity;BME280_pressure;Samples;Min_cycle;Max_cycle;Signal;HPM_P1;HPM_P2
2023/09/14 06:27:36;;;;;;;37.22;33.67;;;26.80;99.90;;;;;;5801295;23;20044;-90
2023/09/14 06:30:04;;;;;;;38.85;34.92;;;27.80;99.90;;;;;;4871113;29;20064;-94
2023/09/14 06:32:31;;;;;;;34.65;31.45;;;28.50;99.90;;;;;;4868283;29;20092;-94
2023/09/14 06:35:00;;;;;;;35.60;31.90;;;28.30;99.90;;;;;;4867561;29;20120;-91
2023/09/14 06:37:26;;;;;;;33.38;30.48;;;28.30;99.90;;;;;;4851256;29;20116;-92
2023/09/14 06:39:53;;;;;;;33.28;30.27;;;28.80;99.90;;;;;;4865831;29;20037;-91
2023/09/14 06:42:20;;;;;;;31.85;29.13;;;28.10;99.90;;;;;;4850381;29;20055;-92
2023/09/14 06:44:49;;;;;;;34.25;31.23;;;28.20;99.90;;;;;;4867525;29;20052;-93
2023/09/14 06:47:17;;;;;;;37.50;31.77;;;28.30;99.90;;;;;;4864100;29;20115;-92
2023/09/14 06:49:43;;;;;;;34.03;30.80;;;28.50;99.90;;;;;;4847935;29;20108;-92
2023/09/14 06:52:10;;;;;;;34.80;31.35;;;28.40;99.90;;;;;;4863942;29;20037;-92
2023/09/14 06:54:36;;;;;;;32.53;29.52;;;28.40;99.90;;;;;;4857844;29;20047;-91
2023/09/14 07:44:35;;;;;;;34.58;31.75;;;30.30;99.90;;;;;;5295534;23;20055;-89
2023/09/14 07:47:02;;;;;;;34.30;31.48;;;30.30;99.90;;;;;;4920737;29;20033;-88
2023/09/14 07:49:28;;;;;;;34.15;31.30;;;30.30;99.90;;;;;;4877888;29;20434;-89
2023/09/14 07:51:58;;;;;;;34.05;31.15;;;29.90;99.90;;;;;;4887868;29;20065;-88
2023/09/14 07:54:27;;;;;;;34.97;32.10;;;29.60;99.90;;;;;;4866578;29;20047;-88
2023/09/14 07:56:54;;;;;;;34.65;31.17;;;29.50;99.90;;;;;;4892419;29;20063;-91
2023/09/14 07:59:41;;;;;;;34.28;31.52;;;29.80;99.90;;;;;;4885812;29;20047;-89
2023/09/14 08:02:27;;;;;;;35.10;32.20;;;29.50;99.90;;;;;;4886188;29;20028;-88
2023/09/14 08:05:04;;;;;;;34.97;31.73;;;29.40;99.90;;;;;;4886840;29;20118;-88
2023/09/14 08:07:34;;;;;;;33.70;30.88;;;29.80;99.90;;;;;;4886371;29;20042;-88
2023/09/14 08:10:01;;;;;;;34.50;31.80;;;29.70;99.90;;;;;;4901144;29;20489;-87
2023/09/14 08:12:27;;;;;;;34.20;31.33;;;30.20;99.90;;;;;;4885308;29;20032;-88
2023/09/14 08:14:56;;;;;;;34.25;31.25;;;30.40;99.90;;;;;;4884615;29;20059;-90
2023/09/14 08:17:24;;;;;;;33.92;31.13;;;30.50;99.90;;;;;;4899830;29;20048;-87
2023/09/14 08:19:52;;;;;;;33.03;30.10;;;29.90;99.90;;;;;;4899422;29;20028;-89
2023/09/14 08:22:22;;;;;;;33.00;30.02;;;29.00;99.90;;;;;;4887960;29;20079;-89
2023/09/14 08:24:52;;;;;;;33.78;30.70;;;28.10;99.90;;;;;;4903114;29;20048;-89
2023/09/14 08:27:18;;;;;;;33.83;30.73;;;27.80;99.90;;;;;;4892196;29;20025;-87
2023/09/14 08:29:47;;;;;;;32.92;30.20;;;28.10;99.90;;;;;;4902822;29;20524;-87
2023/09/14 08:32:13;;;;;;;32.92;30.33;;;28.40;99.90;;;;;;4903255;29;20081;-87
2023/09/14 08:34:40;;;;;;;33.30;30.35;;;28.90;99.90;;;;;;4891769;29;20132;-88
2023/09/14 08:37:10;;;;;;;34.15;30.63;;;29.00;99.90;;;;;;4884181;29;20024;-87
2023/09/14 08:39:40;;;;;;;32.20;29.60;;;29.40;99.90;;;;;;4895124;29;20046;-87
2023/09/14 08:42:06;;;;;;;34.38;31.75;;;29.60;99.90;;;;;;4899381;29;20041;-88
2023/09/14 08:44:34;;;;;;;34.85;31.63;;;30.30;99.90;;;;;;4896281;29;20117;-88
2023/09/14 08:47:01;;;;;;;35.45;32.50;;;31.30;99.90;;;;;;4896480;29;20048;-87
2023/09/14 08:49:31;;;;;;;34.15;31.17;;;31.10;99.90;;;;;;4896534;29;20069;-87
2023/09/14 08:51:59;;;;;;;34.60;31.55;;;30.60;99.90;;;;;;4899696;29;20021;-87
2023/09/14 08:54:26;;;;;;;34.58;31.45;;;30.50;99.90;;;;;;4883871;29;20044;-89
2023/09/14 08:56:53;;;;;;;34.30;31.50;;;29.80;99.90;;;;;;4884095;29;20025;-88
2023/09/14 08:59:23;;;;;;;34.45;31.65;;;29.90;99.90;;;;;;4883817;29;20028;-88
2023/09/14 09:01:50;;;;;;;33.38;30.67;;;29.80;99.90;;;;;;4884077;29;20059;-89
2023/09/14 09:04:16;;;;;;;34.20;31.35;;;29.50;99.90;;;;;;4884047;29;20025;-88
2023/09/14 09:06:43;;;;;;;34.50;31.63;;;29.80;99.90;;;;;;4883833;29;20035;-88
2023/09/14 09:09:14;;;;;;;33.45;31.05;;;30.20;99.90;;;;;;4883452;29;20096;-87
2023/09/14 09:11:40;;;;;;;34.35;31.63;;;30.40;99.90;;;;;;4883569;29;20033;-88
2023/09/14 09:14:07;;;;;;;33.45;30.52;;;30.50;99.90;;;;;;4899004;29;20491;-87
2023/09/14 09:16:33;;;;;;;34.00;31.20;;;30.80;99.90;;;;;;4883547;29;20056;-87
2023/09/14 09:19:10;;;;;;;32.58;29.80;;;30.90;99.90;;;;;;4883327;29;20363;-88
2023/09/14 09:21:41;;;;;;;32.40;29.65;;;30.60;99.90;;;;;;4883137;29;20035;-87
2023/09/14 09:24:10;;;;;;;32.58;30.00;;;30.50;99.90;;;;;;4885732;29;20047;-88
2023/09/14 09:26:40;;;;;;;33.17;30.45;;;30.30;99.90;;;;;;4880067;29;20505;-88
2023/09/14 09:29:20;;;;;;;31.98;29.73;;;30.30;99.90;;;;;;4880457;29;20048;-87
2023/09/14 09:31:50;;;;;;;33.03;30.40;;;30.90;99.90;;;;;;4895227;29;20029;-88
2023/09/14 09:34:22;;;;;;;32.90;30.35;;;30.80;99.90;;;;;;4882937;29;20378;-86
2023/09/14 09:36:57;;;;;;;32.50;30.02;;;31.40;99.90;;;;;;4882947;29;20051;-88
2023/09/14 09:39:25;;;;;;;32.45;30.05;;;31.60;99.90;;;;;;4883180;29;20127;-87
2023/09/14 09:41:51;;;;;;;33.08;30.52;;;31.40;99.90;;;;;;4882803;29;20027;-87
2023/09/14 09:44:19;;;;;;;35.13;32.35;;;31.40;99.90;;;;;;4879465;29;20113;-88
2023/09/14 09:46:46;;;;;;;34.85;31.88;;;30.90;99.90;;;;;;4878954;29;20036;-86
2023/09/14 09:49:18;;;;;;;34.33;31.42;;;31.00;99.90;;;;;;4895007;29;20040;-87
2023/09/14 09:51:48;;;;;;;33.63;30.83;;;30.90;99.90;;;;;;4894997;29;20053;-87
2023/09/14 09:54:18;;;;;;;33.28;30.65;;;31.10;99.90;;;;;;4894850;29;20041;-87
2023/09/14 09:56:45;;;;;;;34.75;31.65;;;31.20;99.90;;;;;;4898001;29;20059;-88
2023/09/14 09:59:15;;;;;;;33.33;30.67;;;31.40;99.90;;;;;;4882567;29;20033;-88
2023/09/14 10:01:48;;;;;;;33.30;30.55;;;31.30;99.90;;;;;;4882793;29;20386;-87
2023/09/14 10:04:17;;;;;;;33.08;30.63;;;31.40;99.90;;;;;;4882464;29;20036;-87
2023/09/14 10:06:51;;;;;;;32.47;29.70;;;31.10;99.90;;;;;;4892939;29;20826;-87
2023/09/14 10:09:18;;;;;;;34.10;31.00;;;30.80;99.90;;;;;;4901954;29;20018;-86
2023/09/14 10:11:47;;;;;;;33.45;30.58;;;30.40;99.90;;;;;;4901511;29;20070;-87
2023/09/14 10:14:16;;;;;;;32.53;30.13;;;30.50;99.90;;;;;;4879077;29;20048;-87
2023/09/14 10:16:44;;;;;;;32.97;30.27;;;30.50;99.90;;;;;;4897496;29;20032;-86
2023/09/14 10:19:13;;;;;;;33.53;30.75;;;30.80;99.90;;;;;;4898025;29;20028;-88
2023/09/14 10:21:40;;;;;;;32.47;29.90;;;31.10;99.90;;;;;;4882131;29;20024;-87
2023/09/14 10:24:07;;;;;;;32.40;29.58;;;31.00;99.90;;;;;;4897421;29;20059;-88
2023/09/14 10:26:37;;;;;;;33.40;30.25;;;30.90;99.90;;;;;;4881651;29;20052;-87
2023/09/14 10:29:08;;;;;;;32.50;29.83;;;30.80;99.90;;;;;;4882378;29;20060;-87
2023/09/14 10:31:35;;;;;;;31.25;28.85;;;30.50;99.90;;;;;;4882038;29;20225;-87
2023/09/14 10:34:03;;;;;;;31.60;29.10;;;30.30;99.90;;;;;;4882005;29;20087;-87
2023/09/14 10:36:32;;;;;;;32.83;30.02;;;30.60;99.90;;;;;;4882193;29;20033;-86
2023/09/14 10:39:05;;;;;;;32.15;29.85;;;30.90;99.90;;;;;;4882311;29;20029;-88
2023/09/14 10:41:32;;;;;;;33.15;30.58;;;31.20;99.90;;;;;;4882352;29;20147;-88
2023/09/14 10:43:59;;;;;;;31.70;29.30;;;31.70;99.90;;;;;;4896728;29;20049;-88
2023/09/14 10:46:35;;;;;;;32.95;30.27;;;31.80;99.90;;;;;;4882044;29;20060;-88
2023/09/14 10:49:04;;;;;;;32.53;29.65;;;31.80;99.90;;;;;;4882518;29;20059;-88
2023/09/14 10:51:31;;;;;;;33.20;30.77;;;31.40;99.90;;;;;;4882290;29;20059;-89
2023/09/14 10:54:00;;;;;;;31.58;29.13;;;30.50;99.90;;;;;;4881890;29;20108;-89
2023/09/14 10:56:31;;;;;;;31.80;29.30;;;30.50;99.90;;;;;;4878460;29;20025;-88
2023/09/14 10:59:09;;;;;;;31.60;28.95;;;30.60;99.90;;;;;;4878836;29;20478;-88
2023/09/14 11:01:47;;;;;;;31.33;28.50;;;30.80;99.90;;;;;;4879352;29;20475;-88
2023/09/14 11:04:21;;;;;;;31.88;29.40;;;30.80;99.90;;;;;;4878605;29;20033;-88
2023/09/14 11:06:51;;;;;;;31.10;28.52;;;31.00;99.90;;;;;;4881831;29;20048;-88
2023/09/14 11:09:20;;;;;;;30.13;27.58;;;30.60;99.90;;;;;;4881840;29;20028;-88
2023/09/14 11:11:50;;;;;;;30.17;27.60;;;30.20;99.90;;;;;;4882277;29;20531;-88
2023/09/14 11:14:20;;;;;;;31.02;28.55;;;30.20;99.90;;;;;;4882104;29;20040;-87
2023/09/14 11:16:51;;;;;;;30.95;28.45;;;30.20;99.90;;;;;;4881626;29;20039;-86
2023/09/14 11:19:31;;;;;;;31.00;28.50;;;30.30;99.90;;;;;;4882015;29;20044;-89
2023/09/14 11:22:03;;;;;;;32.10;29.25;;;30.20;99.90;;;;;;4881998;29;20064;-89
2023/09/14 11:24:34;;;;;;;30.48;27.85;;;30.00;99.90;;;;;;4882104;29;20044;-88
2023/09/14 11:27:01;;;;;;;29.70;27.40;;;29.80;99.90;;;;;;4878241;29;20140;-88
2023/09/14 11:29:31;;;;;;;29.73;27.52;;;30.00;99.90;;;;;;4894104;29;20119;-87
2023/09/14 11:32:08;;;;;;;30.42;27.77;;;29.90;99.90;;;;;;4880995;29;20025;-89
2023/09/14 11:34:39;;;;;;;30.67;28.02;;;30.10;99.90;;;;;;4881728;29;20074;-91
2023/09/14 11:37:06;;;;;;;31.13;28.30;;;29.90;99.90;;;;;;4881584;29;20080;-90
2023/09/14 11:39:34;;;;;;;30.60;28.30;;;29.70;99.90;;;;;;4881859;29;20036;-90
2023/09/14 11:42:04;;;;;;;30.05;27.63;;;29.70;99.90;;;;;;4882555;29;20124;-91
2023/09/14 11:44:31;;;;;;;30.25;27.67;;;29.50;99.90;;;;;;4878389;29;20124;-89
2023/09/14 11:47:03;;;;;;;29.23;26.83;;;29.70;99.90;;;;;;4878630;29;20033;-91
2023/09/14 11:49:31;;;;;;;29.42;26.83;;;29.60;99.90;;;;;;4878806;29;20029;-90
2023/09/14 11:51:58;;;;;;;29.42;27.23;;;29.50;99.90;;;;;;4844715;29;20092;-88
2023/09/14 11:54:31;;;;;;;30.48;27.98;;;29.40;99.90;;;;;;4865460;29;20428;-89
2023/09/14 11:57:04;;;;;;;31.55;28.40;;;29.70;99.90;;;;;;4897660;29;20033;-91
2023/09/14 11:59:33;;;;;;;31.25;28.67;;;29.90;99.90;;;;;;4897894;29;20097;-90
2023/09/14 12:02:04;;;;;;;30.13;27.75;;;29.70;99.90;;;;;;4883277;29;20044;-89
2023/09/14 12:04:31;;;;;;;30.23;27.92;;;29.90;99.90;;;;;;4918106;29;20097;-89
2023/09/14 12:07:02;;;;;;;31.73;28.85;;;30.20;99.90;;;;;;4874688;29;20037;-89
2023/09/14 12:09:41;;;;;;;31.55;28.98;;;30.10;99.90;;;;;;4889317;29;20044;-89
2023/09/14 12:12:13;;;;;;;30.70;28.17;;;30.30;99.90;;;;;;4872101;29;20087;-90
2023/09/14 12:14:43;;;;;;;30.48;28.00;;;30.20;99.90;;;;;;4886465;29;20083;-89
2023/09/14 12:17:26;;;;;;;30.13;27.58;;;29.90;99.90;;;;;;4885500;29;20029;-90
2023/09/14 12:19:59;;;;;;;29.40;27.15;;;30.00;99.90;;;;;;4885751;29;20048;-89
2023/09/14 12:22:29;;;;;;;30.40;27.90;;;30.20;99.90;;;;;;4884322;29;20036;-88
2023/09/14 12:24:56;;;;;;;30.42;27.98;;;30.60;99.90;;;;;;4884429;29;20040;-89
2023/09/14 12:27:23;;;;;;;29.85;27.42;;;30.60;99.90;;;;;;4884590;29;20036;-88
2023/09/14 12:29:50;;;;;;;31.08;28.48;;;30.50;99.90;;;;;;4884492;29;20049;-87
2023/09/14 12:32:18;;;;;;;31.73;29.05;;;30.50;99.90;;;;;;4884078;29;20029;-91
2023/09/14 12:34:45;;;;;;;30.00;27.50;;;30.40;99.90;;;;;;4883833;29;20075;-89
2023/09/14 12:37:15;;;;;;;30.35;27.90;;;30.60;99.90;;;;;;4872169;29;20064;-87
2023/09/14 12:39:51;;;;;;;31.98;29.30;;;30.80;99.90;;;;;;4861896;29;20053;-88
2023/09/14 12:42:22;;;;;;;32.88;30.05;;;30.50;99.90;;;;;;4878104;29;20033;-87
2023/09/14 12:44:49;;;;;;;31.55;28.98;;;30.10;99.90;;;;;;4877882;29;20046;-89
2023/09/14 12:47:16;;;;;;;30.73;28.52;;;29.70;99.90;;;;;;4880074;29;20029;-90
2023/09/14 12:49:43;;;;;;;30.33;27.98;;;29.80;99.90;;;;;;4880109;29;20036;-89
2023/09/14 12:52:10;;;;;;;30.83;28.48;;;30.20;99.90;;;;;;4869380;29;20033;-89
2023/09/14 12:54:37;;;;;;;31.08;28.73;;;30.00;99.90;;;;;;4886803;29;20096;-88
2023/09/14 12:57:33;;;;;;;32.55;29.67;;;30.00;99.90;;;;;;4868737;29;20022;-90
2023/09/14 13:00:11;;;;;;;30.48;28.17;;;30.00;99.90;;;;;;4865906;29;20037;-88
2023/09/14 13:02:39;;;;;;;30.65;28.25;;;30.10;99.90;;;;;;4881379;29;20040;-88
2023/09/14 13:05:07;;;;;;;30.80;28.15;;;30.30;99.90;;;;;;4865839;29;20029;-89
2023/09/14 13:07:36;;;;;;;30.75;28.20;;;30.20;99.90;;;;;;4880729;29;20399;-88
2023/09/14 13:10:10;;;;;;;30.88;28.52;;;29.90;99.90;;;;;;4872249;29;20116;-92
2023/09/14 13:12:42;;;;;;;29.25;26.85;;;29.90;99.90;;;;;;4893988;29;20033;-90
2023/09/14 13:15:12;;;;;;;30.05;27.30;;;30.30;99.90;;;;;;4862504;29;20052;-91
2023/09/14 13:17:39;;;;;;;29.83;27.50;;;30.50;99.90;;;;;;4893619;29;20081;-91
2023/09/14 13:20:09;;;;;;;30.00;27.52;;;30.60;99.90;;;;;;4893585;29;20125;-91
2023/09/14 13:22:36;;;;;;;30.30;27.75;;;30.90;99.90;;;;;;4893648;29;20066;-92
2023/09/14 13:25:03;;;;;;;30.70;28.10;;;30.80;99.90;;;;;;4893870;29;20029;-92
2023/09/14 13:27:34;;;;;;;29.70;27.67;;;30.70;99.90;;;;;;4893929;29;20044;-92
2023/09/14 13:30:04;;;;;;;30.35;28.05;;;31.10;99.90;;;;;;4893904;29;20041;-91
2023/09/14 13:32:31;;;;;;;30.40;28.15;;;31.10;99.90;;;;;;4893563;29;20043;-92
2023/09/14 13:34:57;;;;;;;31.08;28.75;;;30.60;99.90;;;;;;4861990;29;20065;-91
2023/09/14 13:37:24;;;;;;;31.17;28.65;;;30.60;99.90;;;;;;4863122;29;20120;-93
2023/09/14 13:39:50;;;;;;;30.95;28.77;;;30.60;99.90;;;;;;4862354;29;20120;-91
2023/09/14 13:42:16;;;;;;;31.02;28.73;;;30.90;99.90;;;;;;4863355;29;20059;-92
2023/09/14 13:44:43;;;;;;;31.20;29.00;;;30.80;99.90;;;;;;4873341;29;20075;-92
2023/09/14 13:47:09;;;;;;;31.33;28.88;;;30.70;99.90;;;;;;4898380;29;20033;-92
2023/09/14 13:49:36;;;;;;;31.33;28.90;;;30.50;99.90;;;;;;4920615;29;20041;-91
2023/09/14 13:52:03;;;;;;;32.17;29.40;;;30.60;99.90;;;;;;4911379;29;20033;-91
2023/09/14 13:54:30;;;;;;;29.98;27.88;;;30.60;99.90;;;;;;4896241;29;20041;-91
2023/09/14 13:56:56;;;;;;;30.20;28.00;;;30.40;99.90;;;;;;4896222;29;20394;-93
2023/09/14 13:59:25;;;;;;;30.33;28.02;;;30.40;99.90;;;;;;4896304;29;20033;-93
2023/09/14 14:01:52;;;;;;;29.88;27.67;;;30.30;99.90;;;;;;4880803;29;20029;-92
2023/09/14 14:04:19;;;;;;;30.50;27.88;;;30.10;99.90;;;;;;4899243;29;20080;-92
2023/09/14 14:06:45;;;;;;;29.25;27.17;;;29.90;99.90;;;;;;4885306;29;20036;-93
2023/09/14 14:09:12;;;;;;;29.88;27.67;;;29.70;99.90;;;;;;4883571;29;20037;-94
2023/09/14 14:11:38;;;;;;;30.40;28.05;;;29.80;99.90;;;;;;4884398;29;20035;-92
2023/09/14 14:14:05;;;;;;;30.30;27.90;;;29.70;99.90;;;;;;4883790;29;20108;-91
2023/09/14 14:16:31;;;;;;;31.35;28.75;;;29.60;99.90;;;;;;4875689;29;20027;-91
2023/09/14 14:18:57;;;;;;;28.85;26.58;;;29.60;99.90;;;;;;4905075;29;20060;-91
2023/09/14 14:21:29;;;;;;;28.75;26.65;;;29.40;99.90;;;;;;4883197;29;20052;-89
2023/09/14 14:23:56;;;;;;;29.02;26.63;;;29.40;99.90;;;;;;4883205;29;20037;-89
2023/09/14 14:26:24;;;;;;;29.30;27.25;;;29.30;99.90;;;;;;4883065;29;20065;-91
2023/09/14 14:28:50;;;;;;;28.55;26.30;;;29.50;99.90;;;;;;4882754;29;20032;-87
2023/09/14 14:31:17;;;;;;;28.92;26.83;;;29.30;99.90;;;;;;4882713;29;20191;-87
2023/09/14 14:33:43;;;;;;;28.33;26.13;;;29.10;99.90;;;;;;4882533;29;20032;-88
2023/09/14 14:36:09;;;;;;;29.38;27.13;;;29.20;99.90;;;;;;4882821;29;20032;-89
2023/09/14 14:38:35;;;;;;;29.02;27.08;;;29.30;99.90;;;;;;4882973;29;20056;-91
2023/09/14 14:41:02;;;;;;;30.60;28.20;;;29.30;99.90;;;;;;4883041;29;20033;-91
2023/09/14 14:43:29;;;;;;;29.73;27.55;;;29.40;99.90;;;;;;4883431;29;20081;-91
2023/09/14 14:45:57;;;;;;;31.75;29.25;;;29.40;99.90;;;;;;4886216;29;20048;-90
2023/09/14 14:48:41;;;;;;;30.55;28.45;;;29.10;99.90;;;;;;4889585;29;20052;-94
2023/09/14 14:51:09;;;;;;;31.27;28.85;;;28.90;99.90;;;;;;4890452;29;20095;-92
2023/09/14 14:53:36;;;;;;;31.02;28.73;;;28.80;99.90;;;;;;4886171;29;20083;-90
2023/09/14 14:56:03;;;;;;;31.65;29.15;;;28.70;99.90;;;;;;4885659;29;20028;-92
2023/09/14 14:58:30;;;;;;;31.73;29.42;;;28.60;99.90;;;;;;4886319;29;20039;-94
2023/09/14 15:00:57;;;;;;;31.40;29.20;;;28.50;99.90;;;;;;4887513;29;20036;-94
2023/09/14 15:03:26;;;;;;;30.92;28.63;;;28.30;99.90;;;;;;4886900;29;20028;-94
2023/09/14 15:05:52;;;;;;;30.95;28.85;;;28.10;99.90;;;;;;4886888;29;20031;-93
2023/09/14 15:08:19;;;;;;;30.92;28.58;;;28.10;99.90;;;;;;4886973;29;20029;-93
2023/09/14 15:10:45;;;;;;;31.52;28.92;;;28.00;99.90;;;;;;4902473;29;20145;-94
2023/09/14 15:13:11;;;;;;;31.00;28.80;;;28.00;99.90;;;;;;4886909;29;20032;-94
2023/09/14 15:15:40;;;;;;;32.13;29.52;;;28.10;99.90;;;;;;4887396;29;20039;-94
2023/09/14 15:18:07;;;;;;;32.30;29.58;;;28.00;99.90;;;;;;4887917;29;20024;-93
2023/09/14 15:20:33;;;;;;;32.38;29.85;;;27.90;99.90;;;;;;4887563;29;20032;-95
2023/09/14 15:22:59;;;;;;;32.65;30.23;;;27.70;99.90;;;;;;4885396;29;20051;-95
2023/09/14 15:25:26;;;;;;;31.77;29.17;;;27.60;99.90;;;;;;4905872;29;20063;-93
2023/09/14 15:27:59;;;;;;;31.63;29.23;;;27.70;99.90;;;;;;4903459;29;20072;-95
2023/09/14 15:30:36;;;;;;;31.52;29.02;;;27.80;99.90;;;;;;4901461;29;20021;-95
2023/09/14 15:33:07;;;;;;;30.88;28.60;;;27.90;99.90;;;;;;4904900;29;20044;-95
2023/09/14 15:35:39;;;;;;;32.17;29.77;;;28.00;99.90;;;;;;4901083;29;20052;-95
2023/09/14 15:38:05;;;;;;;31.83;29.45;;;28.00;99.90;;;;;;4899935;29;20040;-95
2023/09/14 15:40:32;;;;;;;32.50;29.70;;;27.90;99.90;;;;;;4897920;29;20032;-94
2023/09/14 15:42:58;;;;;;;31.70;29.00;;;27.80;99.90;;;;;;4889745;29;20120;-94
2023/09/14 15:45:25;;;;;;;31.65;29.08;;;27.50;99.90;;;;;;4888840;29;20106;-95
2023/09/14 15:47:51;;;;;;;31.75;29.08;;;27.30;99.90;;;;;;4890484;29;20063;-94
2023/09/14 15:50:18;;;;;;;32.42;29.38;;;27.10;99.90;;;;;;4890115;29;20032;-95
2023/09/14 15:52:44;;;;;;;32.20;29.58;;;27.00;99.90;;;;;;4888543;29;20032;-94
2023/09/14 15:55:10;;;;;;;31.63;28.90;;;27.00;99.90;;;;;;4888231;29;20040;-94
2023/09/14 15:57:37;;;;;;;32.17;29.38;;;27.00;99.90;;;;;;4888941;29;20466;-94
2023/09/14 16:00:04;;;;;;;33.75;30.73;;;26.80;99.90;;;;;;4888444;29;20039;-94
2023/09/14 16:02:35;;;;;;;35.40;32.10;;;26.90;99.90;;;;;;4904988;29;20055;-94
2023/09/14 16:05:06;;;;;;;34.65;31.45;;;27.00;99.90;;;;;;4888291;29;20032;-94
2023/09/14 16:07:33;;;;;;;33.70;30.60;;;26.90;99.90;;;;;;4903846;29;20042;-94
2023/09/14 16:10:04;;;;;;;34.90;31.80;;;27.00;99.90;;;;;;4885227;29;20030;-94
2023/09/14 16:12:30;;;;;;;33.45;30.52;;;26.90;99.90;;;;;;4902252;29;20490;-94
2023/09/14 16:14:57;;;;;;;33.47;30.52;;;26.90;99.90;;;;;;4901674;29;20040;-94
2023/09/14 16:17:23;;;;;;;32.47;29.70;;;26.80;99.90;;;;;;4901629;29;20052;-94
2023/09/14 16:19:49;;;;;;;33.22;30.23;;;26.90;99.90;;;;;;4919353;29;20053;-91
2023/09/14 16:22:15;;;;;;;31.35;28.85;;;26.90;99.90;;;;;;4911270;29;20028;-93
2023/09/14 16:24:42;;;;;;;30.42;27.98;;;26.80;99.90;;;;;;4895485;29;20039;-94
2023/09/14 16:27:09;;;;;;;31.45;28.55;;;26.60;99.90;;;;;;4906197;29;20039;-95
2023/09/14 16:29:36;;;;;;;30.90;28.20;;;26.50;99.90;;;;;;4891903;29;20040;-94
2023/09/14 16:32:03;;;;;;;29.73;27.02;;;26.40;99.90;;;;;;4891504;29;20024;-94
2023/09/14 16:34:29;;;;;;;29.38;26.95;;;26.40;99.90;;;;;;4889227;29;20047;-93
2023/09/14 16:36:57;;;;;;;30.10;27.23;;;26.30;99.90;;;;;;4905578;29;20024;-94
2023/09/14 16:39:23;;;;;;;28.73;26.05;;;26.30;99.90;;;;;;4890285;29;20050;-95
2023/09/14 16:41:50;;;;;;;29.23;26.52;;;26.20;99.90;;;;;;4890983;29;20566;-94
2023/09/14 16:44:17;;;;;;;28.90;26.45;;;26.30;99.90;;;;;;4889259;29;20058;-94
2023/09/14 16:46:43;;;;;;;28.60;25.98;;;26.20;99.90;;;;;;4890035;29;20566;-93
2023/09/14 16:49:23;;;;;;;29.45;26.63;;;26.10;99.90;;;;;;4889372;29;20055;-93
2023/09/14 16:51:52;;;;;;;28.75;26.15;;;26.10;99.90;;;;;;4890637;29;20043;-94
2023/09/14 16:54:23;;;;;;;28.73;26.02;;;26.00;99.90;;;;;;4888520;29;20047;-92
2023/09/14 16:56:59;;;;;;;29.70;26.40;;;25.80;99.90;;;;;;4887389;29;20034;-92
2023/09/14 16:59:26;;;;;;;27.75;24.95;;;25.80;99.90;;;;;;4887926;29;20036;-92
2023/09/14 17:01:54;;;;;;;27.80;24.95;;;25.70;99.90;;;;;;4887285;29;20050;-91
2023/09/14 17:04:21;;;;;;;26.77;24.33;;;25.60;99.90;;;;;;4887625;29;20032;-91
2023/09/14 17:06:53;;;;;;;26.98;24.60;;;25.60;99.90;;;;;;4887134;29;20025;-91
2023/09/14 17:09:21;;;;;;;26.85;24.55;;;25.60;99.90;;;;;;4887208;29;20062;-92
2023/09/14 17:11:47;;;;;;;25.90;23.40;;;25.50;99.90;;;;;;4887095;29;20159;-90
2023/09/14 17:14:16;;;;;;;26.40;23.60;;;25.40;99.90;;;;;;4887072;29;20044;-91
2023/09/14 17:16:43;;;;;;;23.98;21.63;;;25.30;99.90;;;;;;4887285;29;20032;-91
2023/09/14 17:19:09;;;;;;;24.70;22.17;;;25.30;99.90;;;;;;4887032;29;20028;-91
2023/09/14 17:21:35;;;;;;;25.13;22.48;;;25.20;99.90;;;;;;4887030;29;20379;-91
2023/09/14 17:24:03;;;;;;;26.48;23.48;;;25.30;99.90;;;;;;4883899;29;20036;-92
2023/09/14 17:26:30;;;;;;;24.88;22.63;;;25.30;99.90;;;;;;4889152;29;20187;-92
2023/09/14 17:29:02;;;;;;;24.85;22.45;;;25.30;99.90;;;;;;4886835;29;20055;-90
2023/09/14 17:31:30;;;;;;;24.25;21.67;;;25.30;99.90;;;;;;4886797;29;20044;-91
2023/09/14 17:33:58;;;;;;;24.92;22.55;;;25.20;99.90;;;;;;4886628;29;20055;-91
2023/09/14 17:36:26;;;;;;;25.70;23.15;;;25.20;99.90;;;;;;4883565;29;20067;-91
2023/09/14 17:38:52;;;;;;;31.80;23.98;;;25.10;99.90;;;;;;4899283;29;20103;-91
2023/09/14 17:41:18;;;;;;;30.00;26.55;;;25.10;99.90;;;;;;4899107;29;20119;-92
2023/09/14 17:43:45;;;;;;;33.72;25.08;;;25.10;99.90;;;;;;4901816;29;20035;-91
2023/09/14 17:46:13;;;;;;;35.55;26.75;;;25.00;99.90;;;;;;4886428;29;20036;-91
2023/09/14 17:48:40;;;;;;;33.10;26.10;;;25.00;99.90;;;;;;4886422;29;20090;-92
2023/09/14 17:51:06;;;;;;;31.50;27.60;;;24.90;99.90;;;;;;4901737;29;20036;-90
2023/09/14 17:53:32;;;;;;;29.13;26.05;;;24.90;99.90;;;;;;4886029;29;20032;-91
2023/09/14 17:56:03;;;;;;;27.88;25.08;;;24.70;99.90;;;;;;4901869;29;20032;-91
2023/09/14 17:58:30;;;;;;;30.15;25.00;;;24.80;99.90;;;;;;4902037;29;20055;-91
2023/09/14 18:00:57;;;;;;;37.50;25.05;;;24.70;99.90;;;;;;4886488;29;20032;-92
2023/09/14 18:03:24;;;;;;;28.58;24.20;;;24.50;99.90;;;;;;4902099;29;20032;-90
2023/09/14 18:05:52;;;;;;;28.23;25.27;;;24.50;99.90;;;;;;4889503;29;20035;-90
